Weather at Mönchengladbach Airport

Public forecast

Using degrees Celsius for public forecast. Weather courtesy of forecast.io.

Current aviation weather report (METAR) for Mönchengladbach Airport

2024/04/22 13:20 (retrieved 22 minutes ago)

EDLN 221320Z 35010KT 310V020 9999 VCSH SCT040TCU 09/00 Q1023

Closest aviation forecast (TAF) to Mönchengladbach Airport

Closest forecast is Düsseldorf Airport, 10.5 nm (19.4 km) ENE.

2024/04/22 12:28 (retrieved 1 hour ago)

TAF EDDL 221100Z 2212/2318 02009KT 9999 SCT030 PROB40 TEMPO 2212/2217 02015G25KT 4000 SHRAGS SCT020CB BECMG 2217/2220 03004KT BECMG 2309/2312 33006KT